Time;durP1;ratioP1;P1;durP2;ratioP2;P2;SDS_P1;SDS_P2;PMS_P1;PMS_P2;Temp;Humidity;BMP_temperature;BMP_pressure;BME280_temperature;BME280_humidity;BME280_pressure;Samples;Min_cycle;Max_cycle;Signal;HPM_P1;HPM_P2
2021/12/09 00:01:27;;;;;;;6.25;1.80;;;;;;;5.19;71.55;100007.13;5042259;28;20060;-64
2021/12/09 00:03:57;;;;;;;6.38;1.60;;;;;;;5.10;71.66;100004.25;5042557;28;21795;-64
2021/12/09 00:06:28;;;;;;;10.30;1.75;;;;;;;5.06;71.54;100002.38;5036099;28;20054;-63
2021/12/09 00:08:58;;;;;;;5.65;1.50;;;;;;;5.01;72.48;100006.00;5079229;28;20049;-63
2021/12/09 00:11:27;;;;;;;7.18;1.77;;;;;;;5.05;72.40;99998.88;5070755;28;20064;-64
2021/12/09 00:13:55;;;;;;;4.35;1.42;;;;;;;5.09;71.97;100007.28;5054332;28;20041;-63
2021/12/09 00:16:23;;;;;;;6.90;1.70;;;;;;;5.05;72.44;100000.78;5055763;28;20044;-64
2021/12/09 00:18:50;;;;;;;12.45;2.08;;;;;;;5.24;71.80;100010.59;5036045;28;20045;-63
2021/12/09 00:21:17;;;;;;;6.70;2.25;;;;;;;5.49;70.62;100007.47;5035299;28;20056;-63
2021/12/09 00:23:45;;;;;;;7.68;1.80;;;;;;;5.55;70.39;100003.56;5035760;28;20046;-63
2021/12/09 00:26:12;;;;;;;6.90;1.67;;;;;;;5.36;70.98;100002.78;5035950;28;20053;-62
2021/12/09 00:28:39;;;;;;;5.30;1.77;;;;;;;5.19;71.29;100004.41;5035246;28;20057;-63
2021/12/09 00:31:07;;;;;;;8.82;1.45;;;;;;;5.26;71.09;100007.56;5066373;28;20048;-63
2021/12/09 00:33:41;;;;;;;4.55;1.27;;;;;;;5.18;71.55;100013.69;5035843;28;20045;-64
2021/12/09 00:36:08;;;;;;;6.38;1.67;;;;;;;5.22;71.23;100003.78;5035357;28;20060;-66
2021/12/09 00:38:39;;;;;;;7.45;1.55;;;;;;;4.92;72.27;99998.75;5039034;28;20057;-64
2021/12/09 00:41:10;;;;;;;5.30;1.52;;;;;;;5.16;72.49;100000.31;5075540;28;20118;-63
2021/12/09 00:43:38;;;;;;;5.85;1.50;;;;;;;5.04;72.59;100004.63;5075809;28;20055;-64
2021/12/09 00:46:05;;;;;;;7.10;1.63;;;;;;;4.93;73.03;100003.94;5075545;28;20128;-64
2021/12/09 00:48:34;;;;;;;6.60;1.40;;;;;;;4.80;73.79;100010.09;5061684;28;20055;-64
2021/12/09 00:51:04;;;;;;;5.80;1.45;;;;;;;4.87;73.57;100012.47;5046906;28;20045;-63
2021/12/09 00:53:32;;;;;;;6.32;1.48;;;;;;;4.84;73.71;100010.34;5067212;28;20053;-63
2021/12/09 00:55:59;;;;;;;7.32;1.80;;;;;;;4.68;74.00;100015.19;5076349;28;20045;-63
2021/12/09 00:58:27;;;;;;;6.20;1.52;;;;;;;4.85;73.77;100023.69;5044407;28;20075;-63
2021/12/09 01:00:54;;;;;;;12.88;2.40;;;;;;;4.73;73.57;100023.28;5035770;28;20057;-63
2021/12/09 01:03:22;;;;;;;10.00;1.80;;;;;;;4.67;74.01;100024.47;5066449;28;20057;-64
2021/12/09 01:05:49;;;;;;;9.27;1.40;;;;;;;4.86;74.08;100030.78;5085153;28;20053;-64
2021/12/09 01:08:37;;;;;;;6.88;1.90;;;;;;;4.72;74.00;100015.41;5051289;28;20049;-64
2021/12/09 01:11:06;;;;;;;5.37;1.80;;;;;;;4.91;73.50;100024.44;5055133;28;20064;-64
2021/12/09 01:13:33;;;;;;;6.65;1.60;;;;;;;4.85;73.51;100011.94;5054797;28;20288;-63
2021/12/09 01:16:01;;;;;;;5.85;1.63;;;;;;;5.01;72.99;100016.09;5055038;28;20057;-64
2021/12/09 01:18:36;;;;;;;6.50;1.50;;;;;;;5.01;72.78;100016.94;5044378;28;20053;-64
2021/12/09 01:21:04;;;;;;;6.80;2.28;;;;;;;4.98;73.03;100016.69;5034682;28;20485;-66
2021/12/09 01:23:32;;;;;;;8.23;1.98;;;;;;;4.96;72.88;100013.44;5034655;28;20053;-63
2021/12/09 01:26:02;;;;;;;6.18;1.77;;;;;;;5.02;72.86;100021.25;5036285;28;20093;-63
2021/12/09 01:28:39;;;;;;;9.48;1.50;;;;;;;4.86;72.89;100029.97;5043148;28;20057;-63
2021/12/09 01:31:08;;;;;;;8.43;1.65;;;;;;;4.82;73.52;100035.19;5053914;28;20068;-63
2021/12/09 01:33:36;;;;;;;7.28;1.63;;;;;;;4.95;73.44;100033.66;5054812;28;20056;-64
2021/12/09 01:36:05;;;;;;;11.30;1.40;;;;;;;4.90;73.54;100036.47;5053270;28;20059;-63
2021/12/09 01:38:33;;;;;;;5.30;1.63;;;;;;;5.12;72.94;100039.44;5045353;28;20061;-63
2021/12/09 01:41:02;;;;;;;8.82;1.58;;;;;;;5.01;72.85;100044.22;5067883;28;20049;-64
2021/12/09 01:43:30;;;;;;;7.18;1.58;;;;;;;5.08;72.55;100038.38;5064605;28;20050;-64
2021/12/09 01:46:16;;;;;;;12.50;2.15;;;;;;;5.15;72.69;100039.66;5069442;28;20148;-64
2021/12/09 01:48:45;;;;;;;8.93;1.52;;;;;;;5.37;71.91;100041.81;5039139;28;20060;-66
2021/12/09 01:51:14;;;;;;;7.00;1.70;;;;;;;5.13;72.00;100043.78;5033490;28;20061;-63
2021/12/09 01:53:42;;;;;;;8.57;2.15;;;;;;;5.07;72.48;100050.44;5049942;28;20291;-63
2021/12/09 01:56:15;;;;;;;12.70;2.47;;;;;;;4.97;73.00;100048.63;5035508;28;20061;-63
2021/12/09 01:58:42;;;;;;;6.72;1.80;;;;;;;4.80;73.56;100061.94;5034662;28;20053;-64
2021/12/09 02:01:10;;;;;;;10.80;1.90;;;;;;;4.87;73.46;100058.84;5034438;28;20045;-64
2021/12/09 02:03:37;;;;;;;7.30;1.55;;;;;;;4.89;73.01;100057.47;5039379;28;20048;-64
2021/12/09 02:06:05;;;;;;;9.05;1.92;;;;;;;4.95;73.16;100058.22;5045640;28;20036;-63
2021/12/09 02:08:32;;;;;;;9.93;1.67;;;;;;;4.78;73.58;100063.34;5054715;28;20064;-64
2021/12/09 02:11:00;;;;;;;8.82;1.60;;;;;;;4.91;73.59;100068.91;5057792;28;20048;-64
2021/12/09 02:13:28;;;;;;;8.90;1.73;;;;;;;4.78;73.62;100060.63;5058522;28;20068;-63
2021/12/09 02:15:56;;;;;;;7.75;1.77;;;;;;;4.84;73.69;100060.28;5057939;28;20056;-64
2021/12/09 02:18:24;;;;;;;6.70;1.20;;;;;;;4.99;73.00;100065.53;5070041;28;20049;-63
2021/12/09 02:21:13;;;;;;;5.97;1.38;;;;;;;4.85;73.18;100064.59;5057119;28;20060;-63
2021/12/09 02:23:43;;;;;;;6.05;1.77;;;;;;;4.63;73.90;100068.97;5055217;28;20064;-64
2021/12/09 02:26:12;;;;;;;7.55;1.58;;;;;;;4.49;75.32;100064.22;5055591;28;20071;-64
2021/12/09 02:28:42;;;;;;;3.97;1.40;;;;;;;4.73;74.09;100066.94;5053268;28;20053;-63
2021/12/09 02:31:09;;;;;;;8.38;1.55;;;;;;;4.78;74.13;100069.59;5056522;28;20489;-63
2021/12/09 02:33:37;;;;;;;5.88;1.33;;;;;;;4.67;74.04;100070.84;5054182;28;20522;-66
2021/12/09 02:36:05;;;;;;;6.88;1.90;;;;;;;4.84;74.20;100062.19;5058508;28;20049;-63
2021/12/09 02:38:32;;;;;;;12.52;2.25;;;;;;;4.83;74.00;100060.56;5042389;28;20405;-62
2021/12/09 02:41:02;;;;;;;6.57;1.60;;;;;;;4.86;73.88;100062.69;5051283;28;20106;-63
2021/12/09 02:43:30;;;;;;;4.53;1.40;;;;;;;4.80;74.19;100064.66;5037847;28;20053;-67
2021/12/09 02:45:57;;;;;;;12.23;1.70;;;;;;;4.83;73.62;100066.03;5036696;28;20049;-64
2021/12/09 02:48:25;;;;;;;7.55;1.60;;;;;;;4.86;73.55;100062.69;5050070;28;20065;-63
2021/12/09 02:50:53;;;;;;;11.45;1.80;;;;;;;5.03;73.40;100054.84;5057462;28;20046;-63
2021/12/09 02:53:21;;;;;;;10.52;1.73;;;;;;;4.93;73.23;100055.78;5057683;28;20056;-63
2021/12/09 02:55:48;;;;;;;7.28;1.55;;;;;;;4.82;73.77;100062.47;5057714;28;20052;-63
2021/12/09 02:58:15;;;;;;;6.57;1.30;;;;;;;4.93;73.24;100063.16;5054133;28;20049;-63
2021/12/09 03:00:58;;;;;;;8.57;2.00;;;;;;;5.07;73.10;100064.06;5054576;28;20050;-63
2021/12/09 03:03:25;;;;;;;7.95;1.55;;;;;;;4.93;73.12;100065.88;5042831;28;20053;-63
2021/12/09 03:05:57;;;;;;;5.47;1.45;;;;;;;4.77;74.13;100078.09;5045513;28;20140;-63
2021/12/09 03:08:34;;;;;;;9.18;1.80;;;;;;;4.83;74.51;100074.22;5044116;28;20151;-63
2021/12/09 03:11:19;;;;;;;13.80;2.13;;;;;;;4.92;73.64;100075.16;5046252;28;20040;-64
2021/12/09 03:13:49;;;;;;;8.10;1.65;;;;;;;4.82;73.92;100075.28;5044202;28;20050;-64
2021/12/09 03:16:19;;;;;;;9.98;1.60;;;;;;;4.78;74.11;100072.34;5058799;28;20046;-64
2021/12/09 03:18:51;;;;;;;10.50;1.90;;;;;;;5.14;73.20;100070.81;5037755;28;20488;-66
2021/12/09 03:21:24;;;;;;;8.80;1.80;;;;;;;4.95;72.99;100066.41;5055729;28;20049;-64
2021/12/09 03:23:53;;;;;;;7.30;1.42;;;;;;;4.77;73.71;100067.16;5061266;28;20057;-64
2021/12/09 03:26:26;;;;;;;7.15;1.45;;;;;;;5.04;73.57;100075.59;5040007;28;20066;-63
2021/12/09 03:28:53;;;;;;;8.57;1.63;;;;;;;5.04;72.81;100072.84;5037004;28;20068;-63
2021/12/09 03:31:21;;;;;;;6.38;1.42;;;;;;;4.98;73.06;100087.66;5036983;28;20045;-63
2021/12/09 03:33:48;;;;;;;11.70;2.00;;;;;;;5.00;73.64;100078.09;5047717;28;20061;-64
2021/12/09 03:36:16;;;;;;;9.30;1.83;;;;;;;4.92;73.33;100075.16;5038036;28;20532;-64
2021/12/09 03:38:43;;;;;;;8.40;1.63;;;;;;;4.88;74.05;100082.31;5041981;28;20045;-63
2021/12/09 03:41:11;;;;;;;9.38;1.55;;;;;;;4.87;73.81;100083.41;5054428;28;20049;-64
2021/12/09 03:43:39;;;;;;;13.07;1.95;;;;;;;4.75;74.29;100080.28;5045692;28;20053;-64
2021/12/09 03:46:06;;;;;;;7.55;1.65;;;;;;;4.83;74.80;100087.84;5036382;28;20049;-64
2021/12/09 03:48:33;;;;;;;10.98;1.83;;;;;;;4.97;73.80;100083.31;5036880;28;20045;-64
2021/12/09 03:51:02;;;;;;;10.48;1.92;;;;;;;4.95;74.28;100088.25;5036448;28;20049;-64
2021/12/09 03:53:29;;;;;;;12.27;2.15;;;;;;;5.10;74.03;100091.59;5034998;28;20576;-63
2021/12/09 03:55:57;;;;;;;8.20;1.85;;;;;;;4.96;73.92;100095.31;5036673;28;20401;-63
2021/12/09 03:58:24;;;;;;;9.15;1.63;;;;;;;5.04;73.45;100094.69;5036370;28;20405;-63
2021/12/09 04:00:52;;;;;;;11.38;1.80;;;;;;;5.06;73.42;100097.91;5036452;28;20049;-64
2021/12/09 04:03:19;;;;;;;13.70;2.08;;;;;;;5.32;73.09;100099.19;5035311;28;20084;-64
2021/12/09 04:05:47;;;;;;;11.10;2.15;;;;;;;5.38;72.82;100101.59;5036385;28;20052;-64
2021/12/09 04:08:14;;;;;;;5.35;1.58;;;;;;;5.32;72.60;100093.75;5036237;28;20058;-63
2021/12/09 04:10:42;;;;;;;11.05;1.77;;;;;;;5.03;73.58;100112.16;5036616;28;20056;-63
2021/12/09 04:13:09;;;;;;;10.70;1.98;;;;;;;5.29;73.30;100097.06;5035622;28;20037;-63
2021/12/09 04:15:37;;;;;;;5.95;1.70;;;;;;;5.34;72.55;100097.00;5036067;28;20416;-64
2021/12/09 04:18:05;;;;;;;7.82;2.05;;;;;;;5.21;73.00;100103.97;5068065;28;20049;-64
2021/12/09 04:20:32;;;;;;;10.90;2.25;;;;;;;5.24;72.76;100108.06;5036623;28;20058;-64
2021/12/09 04:22:59;;;;;;;7.90;1.85;;;;;;;5.32;72.72;100110.94;5036180;28;20052;-63
2021/12/09 04:25:27;;;;;;;5.82;1.52;;;;;;;5.31;72.56;100111.25;5046702;28;20060;-63
2021/12/09 04:27:55;;;;;;;7.15;1.77;;;;;;;5.22;72.78;100115.72;5036026;28;20060;-63
2021/12/09 04:30:24;;;;;;;7.82;1.85;;;;;;;5.30;72.42;100113.16;5035914;28;20062;-65
2021/12/09 04:32:53;;;;;;;11.38;2.05;;;;;;;5.33;72.44;100117.22;5034182;28;20056;-63
2021/12/09 04:35:21;;;;;;;10.85;2.53;;;;;;;5.33;72.89;100106.31;5035456;28;20045;-64
2021/12/09 04:37:48;;;;;;;9.65;1.90;;;;;;;5.26;72.99;100116.78;5033848;28;20064;-64
2021/12/09 04:40:16;;;;;;;6.68;1.70;;;;;;;5.14;72.42;100114.47;5069546;28;20056;-64
2021/12/09 04:42:44;;;;;;;12.25;2.40;;;;;;;5.04;73.10;100103.66;5075489;28;20052;-64
2021/12/09 04:45:11;;;;;;;10.48;1.98;;;;;;;5.22;73.21;100113.81;5059680;28;20045;-64
2021/12/09 04:47:40;;;;;;;5.78;1.50;;;;;;;5.34;72.28;100119.66;5055207;28;20045;-64
2021/12/09 04:50:09;;;;;;;11.05;1.75;;;;;;;5.38;71.96;100111.69;5052960;28;20071;-63
2021/12/09 04:52:37;;;;;;;8.30;2.00;;;;;;;5.33;72.44;100120.78;5054912;28;20056;-64
2021/12/09 04:55:06;;;;;;;8.20;3.00;;;;;;;5.30;72.47;100118.63;5038551;28;20053;-64
2021/12/09 04:57:34;;;;;;;9.65;1.80;;;;;;;5.43;71.99;100112.44;5035504;28;20053;-63
2021/12/09 05:00:04;;;;;;;8.77;2.22;;;;;;;5.38;72.49;100111.69;5037288;28;20045;-63
2021/12/09 05:02:47;;;;;;;;;;;;;;;5.17;73.07;100115.78;5055430;28;20053;-63
2021/12/09 05:05:14;;;;;;;9.43;2.17;;;;;;;5.51;72.27;100116.41;5041290;28;19925;-63
2021/12/09 05:07:42;;;;;;;6.28;1.90;;;;;;;5.58;72.08;100120.41;5036110;28;20056;-67
2021/12/09 05:10:10;;;;;;;6.70;1.85;;;;;;;5.68;71.19;100120.25;5035431;28;20076;-63
2021/12/09 05:12:37;;;;;;;8.40;1.90;;;;;;;5.79;71.22;100112.72;5033892;28;20484;-64
2021/12/09 05:15:08;;;;;;;11.23;2.17;;;;;;;5.54;71.55;100115.84;5044707;28;20055;-64
2021/12/09 05:17:36;;;;;;;10.98;2.95;;;;;;;5.28;72.55;100120.03;5055033;28;20040;-64
2021/12/09 05:20:05;;;;;;;13.98;2.95;;;;;;;5.16;73.15;100117.69;5054530;28;20407;-63
2021/12/09 05:22:32;;;;;;;15.40;3.65;;;;;;;5.34;72.56;100125.13;5055651;28;20068;-63
2021/12/09 05:24:59;;;;;;;14.57;3.30;;;;;;;5.58;71.85;100120.41;5045090;28;20052;-63
2021/12/09 05:27:27;;;;;;;12.48;2.63;;;;;;;5.38;72.25;100130.81;5044557;28;20053;-63
2021/12/09 05:30:04;;;;;;;15.90;3.50;;;;;;;5.25;72.91;100134.25;5054640;28;20045;-63
2021/12/09 05:32:32;;;;;;;9.98;3.10;;;;;;;5.50;72.22;100123.81;5054678;28;20048;-64
2021/12/09 05:34:59;;;;;;;12.68;2.92;;;;;;;5.46;72.07;100135.59;5044515;28;20049;-63
2021/12/09 05:37:27;;;;;;;12.52;2.95;;;;;;;5.54;72.19;100126.78;5054507;28;20037;-64
2021/12/09 05:39:55;;;;;;;10.98;2.33;;;;;;;5.76;71.65;100137.91;5063817;28;20059;-64
2021/12/09 05:42:24;;;;;;;12.27;2.95;;;;;;;5.82;71.20;100130.47;5054131;28;20053;-64
2021/12/09 05:44:52;;;;;;;13.27;3.25;;;;;;;5.89;70.86;100130.94;5056284;28;20393;-64
2021/12/09 05:47:19;;;;;;;9.40;2.42;;;;;;;5.73;70.62;100133.06;5058755;28;20113;-63
2021/12/09 05:49:48;;;;;;;9.20;2.40;;;;;;;5.63;71.36;100131.25;5058010;28;20057;-64
2021/12/09 05:52:16;;;;;;;18.60;2.70;;;;;;;5.72;71.32;100134.97;5039088;28;20053;-64
2021/12/09 05:54:43;;;;;;;9.70;2.80;;;;;;;5.53;71.49;100139.59;5039006;28;20062;-64
2021/12/09 05:57:11;;;;;;;11.88;2.97;;;;;;;5.58;71.64;100131.34;5038277;28;20432;-64
2021/12/09 05:59:41;;;;;;;12.48;2.70;;;;;;;5.54;71.94;100134.97;5038830;28;20058;-64
2021/12/09 06:02:15;;;;;;;7.97;2.67;;;;;;;5.60;71.40;100139.22;5069468;28;20072;-64
2021/12/09 06:04:43;;;;;;;15.07;3.08;;;;;;;5.41;72.18;100149.34;5036372;28;20053;-63
2021/12/09 06:07:11;;;;;;;8.05;2.40;;;;;;;5.29;72.56;100143.47;5038647;28;20048;-64
2021/12/09 06:09:38;;;;;;;13.35;2.55;;;;;;;5.50;71.75;100150.31;5038990;28;20068;-64
2021/12/09 06:12:06;;;;;;;8.68;2.70;;;;;;;5.43;71.90;100144.41;5077473;28;20067;-64
2021/12/09 06:14:34;;;;;;;17.80;3.00;;;;;;;5.49;71.75;100152.22;5070109;28;20610;-63
2021/12/09 06:17:01;;;;;;;11.48;2.97;;;;;;;5.41;71.87;100149.34;5057000;28;20583;-65
2021/12/09 06:19:29;;;;;;;9.55;2.92;;;;;;;5.28;72.25;100142.66;5048487;28;20056;-65
2021/12/09 06:21:56;;;;;;;11.77;3.25;;;;;;;5.44;72.37;100149.56;5038737;28;20068;-64
2021/12/09 06:24:23;;;;;;;17.17;3.42;;;;;;;5.48;71.83;100152.50;5039342;28;20052;-65
2021/12/09 06:26:50;;;;;;;9.23;2.92;;;;;;;5.34;72.66;100152.44;5048043;28;20068;-64
2021/12/09 06:29:18;;;;;;;9.68;2.58;;;;;;;5.31;72.07;100163.94;5067107;28;20055;-65
2021/12/09 06:31:45;;;;;;;11.48;2.85;;;;;;;5.30;71.94;100164.25;5076887;28;20069;-64
2021/12/09 06:34:12;;;;;;;13.85;3.25;;;;;;;5.36;72.11;100161.16;5059909;28;20064;-63
2021/12/09 06:36:41;;;;;;;13.02;2.75;;;;;;;5.33;72.30;100160.91;5054868;28;20609;-65
2021/12/09 06:39:09;;;;;;;8.52;3.03;;;;;;;5.21;72.54;100161.31;5064345;28;20044;-64
2021/12/09 06:41:36;;;;;;;12.18;3.05;;;;;;;5.29;72.62;100160.69;5050306;28;20053;-63
2021/12/09 06:44:04;;;;;;;14.70;3.45;;;;;;;5.45;72.12;100172.22;5036233;28;20084;-63
2021/12/09 06:46:31;;;;;;;10.25;3.28;;;;;;;5.28;72.64;100169.97;5044480;28;20511;-63
2021/12/09 06:48:58;;;;;;;9.35;2.95;;;;;;;5.46;71.98;100174.66;5044997;28;20041;-64
2021/12/09 06:51:26;;;;;;;14.32;3.70;;;;;;;5.36;71.95;100173.97;5083243;28;20067;-64
2021/12/09 06:53:53;;;;;;;10.80;3.17;;;;;;;5.40;72.27;100178.59;5051971;28;20428;-63
2021/12/09 06:56:20;;;;;;;12.20;3.40;;;;;;;5.33;72.35;100174.56;5050386;28;20126;-62
2021/12/09 06:58:48;;;;;;;16.48;3.13;;;;;;;5.30;71.81;100175.94;5052801;28;20057;-63
2021/12/09 07:01:16;;;;;;;11.43;3.05;;;;;;;5.47;71.89;100180.94;5046260;28;20060;-64
2021/12/09 07:03:44;;;;;;;9.95;3.10;;;;;;;5.39;71.69;100187.03;5058778;28;20064;-64
2021/12/09 07:06:12;;;;;;;13.95;3.47;;;;;;;5.29;71.84;100182.53;5043691;28;20067;-65
2021/12/09 07:08:46;;;;;;;22.05;3.83;;;;;;;5.09;72.50;100185.47;5046575;28;20045;-63
2021/12/09 07:11:15;;;;;;;12.13;4.07;;;;;;;4.92;72.98;100182.41;5059294;28;20064;-62
2021/12/09 07:13:43;;;;;;;17.48;3.50;;;;;;;5.08;73.11;100181.13;5040131;28;20045;-62
2021/12/09 07:16:10;;;;;;;16.25;3.53;;;;;;;4.88;73.36;100191.47;5049666;28;20063;-63
2021/12/09 07:18:38;;;;;;;13.43;3.95;;;;;;;5.07;73.62;100185.00;5053567;28;20049;-62
2021/12/09 07:21:07;;;;;;;13.73;3.58;;;;;;;5.08;74.89;100188.50;5046626;28;20060;-62
2021/12/09 07:23:35;;;;;;;8.20;3.03;;;;;;;5.07;73.23;100195.09;5039195;28;20049;-62
2021/12/09 07:26:03;;;;;;;18.35;4.03;;;;;;;5.14;75.46;100199.09;5052341;28;20045;-63
2021/12/09 07:28:30;;;;;;;13.18;4.68;;;;;;;5.80;76.78;100187.31;5052626;28;20512;-62
2021/12/09 07:30:57;;;;;;;13.05;4.07;;;;;;;6.13;74.29;100184.41;5041919;28;20052;-63
2021/12/09 07:33:25;;;;;;;15.43;3.85;;;;;;;6.35;72.68;100181.03;5068349;28;20510;-62
2021/12/09 07:35:52;;;;;;;15.18;3.70;;;;;;;6.42;72.04;100185.00;5071907;28;20149;-63
2021/12/09 07:38:20;;;;;;;24.52;4.75;;;;;;;6.05;71.73;100185.06;5049670;28;20400;-64
2021/12/09 07:40:48;;;;;;;14.45;4.35;;;;;;;5.79;70.79;100183.78;5040036;28;20042;-62
2021/12/09 07:43:15;;;;;;;16.15;5.47;;;;;;;5.61;72.44;100181.84;5047352;28;20072;-62
2021/12/09 07:45:43;;;;;;;10.73;4.38;;;;;;;5.81;71.66;100197.13;5042208;28;20055;-61
2021/12/09 07:48:10;;;;;;;12.90;3.65;;;;;;;5.89;71.21;100183.69;5054986;28;20052;-61
2021/12/09 07:50:38;;;;;;;17.75;4.88;;;;;;;5.61;70.89;100193.56;5070801;28;20045;-62
2021/12/09 07:53:05;;;;;;;18.58;4.78;;;;;;;5.50;70.94;100192.09;5053209;28;20089;-61
2021/12/09 07:55:33;;;;;;;19.48;5.05;;;;;;;5.55;71.32;100196.66;5041887;28;20057;-64
2021/12/09 07:58:00;;;;;;;15.50;4.93;;;;;;;5.46;72.07;100191.06;5045218;28;20104;-63
2021/12/09 08:00:30;;;;;;;19.48;6.95;;;;;;;5.35;72.37;100191.47;5045265;28;20049;-63
2021/12/09 08:03:01;;;;;;;13.57;4.03;;;;;;;5.34;71.59;100187.09;5046381;28;20041;-62
2021/12/09 08:05:31;;;;;;;18.45;5.03;;;;;;;5.83;72.89;100195.78;5051230;28;20049;-62
2021/12/09 08:08:00;;;;;;;13.52;4.63;;;;;;;5.86;72.80;100189.72;5043310;28;20533;-61
2021/12/09 08:10:27;;;;;;;9.75;4.03;;;;;;;5.68;70.71;100195.97;5053448;28;20388;-62
2021/12/09 08:12:55;;;;;;;17.30;4.18;;;;;;;5.57;71.05;100205.38;5051468;28;20041;-62
2021/12/09 08:15:33;;;;;;;16.50;4.82;;;;;;;5.70;71.33;100205.47;5037136;28;20048;-62
2021/12/09 08:18:14;;;;;;;13.70;4.60;;;;;;;5.43;71.20;100199.84;5043176;28;20041;-60
2021/12/09 08:20:41;;;;;;;14.93;4.35;;;;;;;5.31;71.92;100209.53;5050101;28;20049;-62
2021/12/09 08:23:09;;;;;;;17.33;4.50;;;;;;;5.41;72.19;100201.22;5051895;28;20149;-62
2021/12/09 08:25:37;;;;;;;17.33;4.30;;;;;;;5.40;71.84;100199.59;5035878;28;20048;-62
2021/12/09 08:28:05;;;;;;;13.82;3.88;;;;;;;5.32;72.09;100202.97;5048126;28;20053;-62
2021/12/09 08:30:33;;;;;;;14.20;4.25;;;;;;;5.35;71.74;100197.72;5042928;28;20049;-63
2021/12/09 08:33:22;;;;;;;19.33;4.38;;;;;;;5.51;71.89;100207.38;5038810;28;20061;-62
2021/12/09 08:35:50;;;;;;;13.73;4.20;;;;;;;5.61;71.60;100201.78;5047014;28;20048;-64
2021/12/09 08:38:18;;;;;;;14.10;4.53;;;;;;;5.87;70.50;100187.81;5041609;28;20042;-62
2021/12/09 08:40:47;;;;;;;20.88;7.00;;;;;;;5.80;71.62;100193.59;5052941;28;20064;-62
2021/12/09 08:43:15;;;;;;;15.50;4.45;;;;;;;5.52;70.55;100198.09;5043714;28;20049;-62
2021/12/09 08:45:43;;;;;;;16.58;4.13;;;;;;;5.69;71.50;100211.25;5037483;28;20045;-63
2021/12/09 08:48:10;;;;;;;17.52;4.97;;;;;;;5.72;71.33;100202.44;5038040;28;20045;-62
2021/12/09 08:50:38;;;;;;;19.10;4.68;;;;;;;5.63;71.69;100210.50;5037778;28;20071;-62
2021/12/09 08:53:09;;;;;;;14.43;3.80;;;;;;;5.71;70.90;100209.84;5040445;28;20061;-62
2021/12/09 08:55:37;;;;;;;19.23;4.10;;;;;;;5.63;70.79;100210.50;5044557;28;20055;-63
2021/12/09 08:58:05;;;;;;;20.73;5.18;;;;;;;5.66;71.14;100228.22;5044641;28;20052;-64
2021/12/09 09:00:34;;;;;;;18.60;4.90;;;;;;;5.65;70.46;100226.59;5040345;28;20047;-63
2021/12/09 09:03:02;;;;;;;18.33;4.82;;;;;;;5.73;71.36;100220.47;5041290;28;20059;-63
2021/12/09 09:05:32;;;;;;;15.32;4.65;;;;;;;5.74;70.99;100224.84;5036114;28;20049;-63
2021/12/09 09:08:00;;;;;;;18.30;4.72;;;;;;;5.94;70.77;100221.03;5055243;28;20045;-62
2021/12/09 09:10:30;;;;;;;19.00;4.63;;;;;;;5.70;71.06;100229.28;5049556;28;20068;-64
2021/12/09 09:12:57;;;;;;;17.23;4.07;;;;;;;5.68;71.30;100235.00;5042777;28;20037;-63
2021/12/09 09:15:26;;;;;;;18.33;4.35;;;;;;;5.88;70.29;100235.88;5035405;28;20061;-62
2021/12/09 09:17:54;;;;;;;11.32;3.75;;;;;;;5.74;70.58;100242.06;5048608;28;20489;-62
2021/12/09 09:20:25;;;;;;;16.30;4.45;;;;;;;5.56;71.71;100242.81;5040778;28;20050;-62
2021/12/09 09:22:52;;;;;;;11.27;3.90;;;;;;;5.79;72.73;100243.88;5055202;28;20056;-64
2021/12/09 09:25:28;;;;;;;22.10;4.03;;;;;;;5.67;71.58;100238.84;5045408;28;20058;-62
2021/12/09 09:27:57;;;;;;;14.90;3.97;;;;;;;5.81;72.06;100238.94;5046617;28;20057;-63
2021/12/09 09:30:36;;;;;;;16.15;4.07;;;;;;;5.73;71.89;100253.28;5056348;28;20296;-64
2021/12/09 09:33:07;;;;;;;15.20;4.28;;;;;;;5.78;72.04;100249.66;5071309;28;20059;-63
2021/12/09 09:35:37;;;;;;;14.30;5.55;;;;;;;6.20;71.83;100247.72;5058107;28;20057;-63
2021/12/09 09:38:05;;;;;;;16.53;5.33;;;;;;;6.14;70.10;100257.09;5059880;28;20036;-63
2021/12/09 09:40:41;;;;;;;14.32;4.28;;;;;;;6.14;70.74;100254.38;5067931;28;20297;-65
2021/12/09 09:43:55;;;;;;;13.63;4.00;;;;;;;6.10;71.06;100264.25;5056133;28;20060;-65
2021/12/09 09:46:04;;;;;;;9.65;3.60;;;;;;;6.31;70.20;100265.59;5057704;28;20056;-63
2021/12/09 09:48:33;;;;;;;16.80;3.88;;;;;;;6.35;70.21;100265.81;5057896;28;20052;-64
2021/12/09 09:51:01;;;;;;;16.02;4.00;;;;;;;6.41;70.06;100281.88;5055459;28;20060;-62
2021/12/09 09:53:28;;;;;;;16.23;3.90;;;;;;;6.47;69.60;100272.47;5063476;28;20416;-64
2021/12/09 09:55:55;;;;;;;13.88;3.42;;;;;;;6.64;68.70;100278.22;5053855;28;20056;-63
2021/12/09 09:58:25;;;;;;;18.25;4.35;;;;;;;6.76;68.84;100275.03;5050618;28;20060;-63
2021/12/09 10:00:53;;;;;;;12.93;3.70;;;;;;;6.70;68.19;100278.94;5053721;28;20136;-63
2021/12/09 10:03:27;;;;;;;15.10;3.65;;;;;;;6.63;68.60;100270.31;5053209;28;20405;-64
2021/12/09 10:05:57;;;;;;;13.45;3.72;;;;;;;6.71;67.89;100270.44;5056273;28;20044;-64
2021/12/09 10:08:24;;;;;;;21.17;4.88;;;;;;;6.61;67.92;100269.78;5053515;28;20049;-64
2021/12/09 10:10:51;;;;;;;15.30;4.13;;;;;;;6.94;68.38;100268.69;5054289;28;20048;-64
2021/12/09 10:13:21;;;;;;;18.63;4.05;;;;;;;7.28;67.30;100262.88;5057271;28;20064;-62
2021/12/09 10:15:51;;;;;;;19.20;4.13;;;;;;;7.30;66.08;100264.22;5050087;28;20041;-66
2021/12/09 10:18:37;;;;;;;26.40;4.75;;;;;;;7.30;66.21;100263.38;5054466;28;20472;-63
2021/12/09 10:21:07;;;;;;;27.00;4.00;;;;;;;7.57;66.37;100258.72;5053103;28;20053;-63
2021/12/09 10:23:39;;;;;;;24.77;4.28;;;;;;;7.61;65.94;100257.00;5061597;28;20044;-63
2021/12/09 10:26:14;;;;;;;16.60;4.68;;;;;;;7.86;65.15;100255.69;5058004;28;20056;-64
2021/12/09 10:29:02;;;;;;;13.68;3.92;;;;;;;7.58;64.88;100249.38;5054253;28;20057;-63
2021/12/09 10:31:39;;;;;;;13.85;4.05;;;;;;;7.57;65.05;100246.94;5067839;28;20059;-62
2021/12/09 10:34:28;;;;;;;14.98;3.75;;;;;;;7.59;64.44;100239.22;5067288;28;20071;-62
2021/12/09 10:36:57;;;;;;;11.95;3.10;;;;;;;7.77;64.63;100243.81;5068563;28;20532;-62
2021/12/09 10:39:34;;;;;;;9.82;3.10;;;;;;;7.71;64.42;100239.53;5066898;28;20776;-63
2021/12/09 10:42:14;;;;;;;10.38;3.35;;;;;;;7.48;64.79;100246.06;5066172;28;20049;-61
2021/12/09 10:44:44;;;;;;;16.45;4.03;;;;;;;7.50;64.70;100243.81;5061966;28;20045;-63
2021/12/09 10:47:22;;;;;;;19.67;3.42;;;;;;;7.48;65.14;100244.09;5062517;28;20068;-62
2021/12/09 10:50:08;;;;;;;13.88;3.30;;;;;;;7.48;65.31;100235.88;5069213;28;20040;-64
2021/12/09 10:52:43;;;;;;;11.32;3.78;;;;;;;7.48;65.37;100235.09;5069890;28;20051;-63
2021/12/09 10:55:18;;;;;;;14.00;3.97;;;;;;;7.53;65.13;100237.72;5066966;28;20057;-63
2021/12/09 10:57:53;;;;;;;10.98;3.30;;;;;;;7.75;64.83;100230.41;5058955;28;20461;-63
2021/12/09 11:00:24;;;;;;;14.73;3.35;;;;;;;7.72;65.16;100231.00;5077289;28;20053;-62
2021/12/09 11:02:58;;;;;;;17.02;3.78;;;;;;;7.54;65.02;100229.19;5059825;28;20380;-62
2021/12/09 11:05:26;;;;;;;15.57;3.95;;;;;;;7.66;65.48;100225.94;5061951;28;20059;-63
2021/12/09 11:07:54;;;;;;;16.58;4.03;;;;;;;7.87;64.90;100221.66;5062514;28;20057;-64
2021/12/09 11:10:23;;;;;;;13.57;4.00;;;;;;;7.98;64.57;100223.06;5056422;28;20051;-63
2021/12/09 11:12:56;;;;;;;13.60;3.83;;;;;;;7.94;64.53;100222.84;5065014;28;20515;-63
2021/12/09 11:15:54;;;;;;;17.88;4.57;;;;;;;7.90;64.49;100215.53;5056906;28;20053;-63
2021/12/09 11:18:40;;;;;;;18.25;4.47;;;;;;;7.77;64.80;100210.91;5053100;28;20048;-64
2021/12/09 11:21:20;;;;;;;15.55;3.88;;;;;;;7.96;64.54;100204.16;5057354;28;20067;-62
2021/12/09 11:23:57;;;;;;;14.50;3.75;;;;;;;7.78;64.42;100207.03;5058614;28;20150;-63
2021/12/09 11:29:42;;;;;;;13.25;3.67;;;;;;;8.43;62.91;100194.59;5058301;28;20056;-63
2021/12/09 11:40:30;;;;;;;17.52;7.13;;;;;;;8.09;64.00;100190.72;5081839;28;20051;-62
2021/12/09 11:43:00;;;;;;;;;;;;;;;8.25;63.64;100181.84;5076392;28;20048;-64
2021/12/09 11:45:37;;;;;;;15.35;3.97;;;;;;;8.20;63.46;100181.13;5075284;28;19932;-63
2021/12/09 11:48:07;;;;;;;16.65;4.72;;;;;;;8.33;63.20;100186.59;5056779;28;20407;-67
2021/12/09 11:50:38;;;;;;;11.75;3.70;;;;;;;8.39;62.82;100177.09;5053234;28;20380;-64
2021/12/09 11:53:11;;;;;;;13.88;3.67;;;;;;;8.40;63.54;100186.97;5062649;28;20049;-64